»·PEaware :: UPS227 KSAN-KOAK

UPS227 :: KSAN-KOAK

FLIGHT INFORMATION

Flight Status: Arrived
Operator:
United Parcel Service
More flights by this operator :: More flights under this callsign
Pilot: Brian B. (27125)
Aircraft: BOEING 757-200
(B752)
More flights by this aircraft type
Origin: KSAN San Diego Intl-Lindbergh
United States
Destination: KOAK Metro Oakland Intl
United States
More flights between these airports :: More routes between these airports
Route: +PEBLE6 SLI COREZ RGOOD EMZOH3
File this flight plan on PilotEdge
Remarks:
Altitude:
(Current/Filed)
24,000ft
Speed:
(Current/Filed)
290kts
Departed: 08-Jan-20 07:18 PM
Arrived: 08-Jan-20 09:22 PM
Distance/Time
Traveled:
387nm/2:04
Distance/Time
To Go:
Arrived

Flight Plot

Page will automatically refresh every two minutes.

Flight plan parsing failed; only flown route is shown


Map Options




Map Legend


Flown Route
Filed Route
Departure Airport
Arrival Airport
Navaid (VOR, NDB)
Fix

Horizontal Profiles

Position Reports

Time Latitude Longitude Heading Altitude Ground
Speed
08-Jan-20 18:59 32.737164 -117.185600 354 26ft 0kts
08-Jan-20 19:00 32.737164 -117.185600 354 26ft 0kts
08-Jan-20 19:01 32.737164 -117.185600 354 26ft 0kts
08-Jan-20 19:02 32.737164 -117.185600 354 26ft 0kts
08-Jan-20 19:03 32.737164 -117.185600 354 26ft 0kts
08-Jan-20 19:04 32.737164 -117.185600 354 26ft 0kts
08-Jan-20 19:05 32.737164 -117.185600 354 26ft 0kts
08-Jan-20 19:06 32.737164 -117.185600 354 26ft 0kts
08-Jan-20 19:07 32.737164 -117.185600 354 26ft 0kts
08-Jan-20 19:08 32.737164 -117.185600 354 26ft 0kts
08-Jan-20 19:09 32.737164 -117.185600 354 26ft 0kts
08-Jan-20 19:10 32.737164 -117.185600 354 26ft 0kts
08-Jan-20 19:11 32.737164 -117.185600 354 26ft 0kts
08-Jan-20 19:12 32.737164 -117.185600 354 26ft 0kts
08-Jan-20 19:13 32.737164 -117.185600 354 26ft 0kts
08-Jan-20 19:14 32.737132 -117.185596 354 26ft 3kts
08-Jan-20 19:15 32.736808 -117.185893 144 25ft 2kts
08-Jan-20 19:16 32.735686 -117.184981 147 25ft 32kts
08-Jan-20 19:17 32.732189 -117.179445 105 27ft 60kts
08-Jan-20 19:18 32.731121 -117.175697 130 29ft 0kts
08-Jan-20 19:19 32.731121 -117.175696 130 29ft 0kts
08-Jan-20 19:20 32.730415 -117.176800 286 28ft 29kts
08-Jan-20 19:21 32.735705 -117.198392 284 202ft 161kts
08-Jan-20 19:22 32.748200 -117.228498 301 1426ft 176kts
08-Jan-20 19:23 32.766362 -117.260087 300 3204ft 180kts
08-Jan-20 19:24 32.787378 -117.296585 299 5240ft 179kts
08-Jan-20 19:25 32.809030 -117.334281 299 7347ft 179kts
08-Jan-20 19:26 32.832481 -117.375146 299 9628ft 179kts
08-Jan-20 19:27 32.856688 -117.417350 300 11966ft 180kts
08-Jan-20 19:28 32.883509 -117.459711 303 14331ft 194kts
08-Jan-20 19:29 32.923405 -117.490976 323 15643ft 226kts
08-Jan-20 19:30 32.967992 -117.522493 323 16437ft 229kts
08-Jan-20 19:31 33.004613 -117.565317 304 17946ft 227kts
08-Jan-20 19:32 33.036848 -117.614171 305 19554ft 232kts
08-Jan-20 19:33 33.069269 -117.663353 308 21166ft 231kts
08-Jan-20 19:34 33.101423 -117.712336 308 22780ft 233kts
08-Jan-20 19:35 33.128808 -117.754506 308 24065ft 240kts
08-Jan-20 19:36 33.163534 -117.807885 308 24083ft 316kts
08-Jan-20 19:37 33.218513 -117.848230 344 24065ft 339kts
08-Jan-20 19:39 33.312087 -117.883065 339 24055ft 336kts
08-Jan-20 19:40 33.370607 -117.904539 339 24056ft 362kts
08-Jan-20 19:41 33.430030 -117.926066 339 24053ft 364kts
08-Jan-20 19:42 33.487967 -117.947090 339 24052ft 363kts
08-Jan-20 19:43 33.545369 -117.967973 339 24050ft 363kts
08-Jan-20 19:44 33.601084 -117.988263 339 24047ft 363kts
08-Jan-20 19:45 33.652808 -118.007137 339 24042ft 362kts
08-Jan-20 19:46 33.702932 -118.025451 339 24039ft 362kts
08-Jan-20 19:47 33.753089 -118.043787 339 24041ft 362kts
08-Jan-20 19:48 33.800253 -118.068506 327 24041ft 358kts
08-Jan-20 19:49 33.846266 -118.104654 325 24038ft 357kts
08-Jan-20 19:50 33.891280 -118.140021 325 24037ft 359kts
08-Jan-20 19:51 33.938563 -118.177209 325 24034ft 358kts
08-Jan-20 19:52 33.983908 -118.212971 325 24033ft 358kts
08-Jan-20 19:53 34.031742 -118.250766 325 24030ft 358kts
08-Jan-20 19:54 34.081867 -118.290433 325 24024ft 357kts
08-Jan-20 19:55 34.128462 -118.327360 325 24034ft 358kts
08-Jan-20 19:56 34.175307 -118.364526 325 24032ft 357kts
08-Jan-20 19:57 34.224605 -118.403706 325 24032ft 357kts
08-Jan-20 19:58 34.282275 -118.449594 325 24032ft 358kts
08-Jan-20 19:59 34.339334 -118.495084 325 24035ft 358kts
08-Jan-20 19:59 34.384721 -118.531317 325 24033ft 358kts
08-Jan-20 20:01 34.448918 -118.582655 325 24034ft 358kts
08-Jan-20 20:02 34.503994 -118.626787 325 24037ft 358kts
08-Jan-20 20:02 34.548545 -118.662535 324 24045ft 358kts
08-Jan-20 20:04 34.611048 -118.712738 324 24049ft 357kts
08-Jan-20 20:04 34.656639 -118.749428 324 24060ft 356kts
08-Jan-20 20:05 34.708333 -118.791083 324 24082ft 356kts
08-Jan-20 20:06 34.760594 -118.833261 324 24089ft 356kts
08-Jan-20 20:07 34.813516 -118.876062 325 24092ft 356kts
08-Jan-20 20:08 34.877869 -118.928188 325 24114ft 356kts
08-Jan-20 20:09 34.944139 -118.981958 325 24132ft 354kts
08-Jan-20 20:10 34.999894 -119.027217 324 24140ft 350kts
08-Jan-20 20:11 35.056863 -119.073592 324 24144ft 347kts
08-Jan-20 20:12 35.109781 -119.116765 324 24152ft 348kts
08-Jan-20 20:13 35.162096 -119.159551 324 24154ft 347kts
08-Jan-20 20:14 35.215165 -119.202989 324 24153ft 347kts
08-Jan-20 20:15 35.274015 -119.251213 324 24151ft 346kts
08-Jan-20 20:16 35.345571 -119.309949 324 24150ft 347kts
08-Jan-20 20:17 35.416926 -119.368649 324 24152ft 347kts
08-Jan-20 20:18 35.482692 -119.422875 324 24154ft 347kts
08-Jan-20 20:19 35.537962 -119.468620 324 24156ft 347kts
08-Jan-20 20:20 35.589013 -119.517379 319 24155ft 345kts
08-Jan-20 20:21 35.639414 -119.568758 319 24153ft 345kts
08-Jan-20 20:22 35.687846 -119.618046 319 24152ft 346kts
08-Jan-20 20:23 35.734453 -119.665653 319 24164ft 346kts
08-Jan-20 20:24 35.781300 -119.713640 319 24168ft 345kts
08-Jan-20 20:25 35.827885 -119.761458 319 24174ft 345kts
08-Jan-20 20:26 35.873299 -119.808156 319 24176ft 346kts
08-Jan-20 20:27 35.916523 -119.852739 318 24175ft 346kts
08-Jan-20 20:28 35.957985 -119.902027 315 24174ft 345kts
08-Jan-20 20:29 36.000969 -119.953673 315 24173ft 346kts
08-Jan-20 20:30 36.044832 -120.005815 316 24172ft 345kts
08-Jan-20 20:31 36.090859 -120.060530 316 24171ft 345kts
08-Jan-20 20:32 36.133113 -120.110836 315 24182ft 346kts
08-Jan-20 20:33 36.175955 -120.161916 315 24171ft 347kts
08-Jan-20 20:34 36.218932 -120.213246 315 22915ft 345kts
08-Jan-20 20:35 36.260582 -120.263061 315 22096ft 336kts
08-Jan-20 20:36 36.304194 -120.315322 315 22099ft 340kts
08-Jan-20 20:37 36.347485 -120.367260 315 22099ft 340kts
08-Jan-20 20:38 36.388422 -120.416493 315 22098ft 340kts
08-Jan-20 20:39 36.430823 -120.467530 315 22097ft 340kts
08-Jan-20 20:40 36.477531 -120.523904 315 22096ft 340kts
08-Jan-20 20:41 36.519995 -120.575202 315 22095ft 340kts
08-Jan-20 20:42 36.568754 -120.631588 318 22094ft 340kts
08-Jan-20 20:43 36.613835 -120.680710 317 22098ft 341kts
08-Jan-20 20:44 36.661767 -120.733724 317 22092ft 341kts
08-Jan-20 20:45 36.706395 -120.783296 317 22091ft 341kts
08-Jan-20 20:46 36.747465 -120.828983 317 22090ft 341kts
08-Jan-20 20:47 36.789421 -120.875698 317 21706ft 348kts
08-Jan-20 20:48 36.833002 -120.923933 317 19998ft 345kts
08-Jan-20 20:49 36.875464 -120.971018 317 18318ft 342kts
08-Jan-20 20:50 36.918117 -121.018418 317 16564ft 341kts
08-Jan-20 20:51 36.970013 -121.076175 317 15074ft 321kts
08-Jan-20 20:52 37.013865 -121.125077 317 15077ft 321kts
08-Jan-20 20:53 37.063994 -121.181066 318 15076ft 320kts
08-Jan-20 20:54 37.111464 -121.234211 318 15082ft 321kts
08-Jan-20 20:55 37.154727 -121.283200 317 15059ft 322kts
08-Jan-20 20:56 37.196826 -121.332425 317 14426ft 321kts
08-Jan-20 20:57 37.241162 -121.384052 317 12886ft 323kts
08-Jan-20 20:58 37.281844 -121.431454 317 11110ft 330kts
08-Jan-20 20:59 37.318490 -121.474209 317 9481ft 334kts
08-Jan-20 21:00 37.352237 -121.513651 317 8979ft 309kts
08-Jan-20 21:01 37.385105 -121.552086 318 8924ft 309kts
08-Jan-20 21:02 37.419824 -121.591688 318 8162ft 257kts
08-Jan-20 21:03 37.446126 -121.625105 306 7708ft 252kts
08-Jan-20 21:04 37.473644 -121.674131 306 6980ft 241kts
08-Jan-20 21:05 37.496973 -121.714457 305 6864ft 241kts
08-Jan-20 21:06 37.521338 -121.757049 305 6173ft 234kts
08-Jan-20 21:07 37.540715 -121.791031 304 5702ft 239kts
08-Jan-20 21:08 37.561869 -121.828011 304 5269ft 226kts
08-Jan-20 21:09 37.578100 -121.862174 294 5276ft 223kts
08-Jan-20 21:10 37.582045 -121.903183 262 4131ft 254kts
08-Jan-20 21:11 37.577505 -121.948285 263 3453ft 230kts
08-Jan-20 21:12 37.573545 -121.987987 263 3379ft 199kts
08-Jan-20 21:13 37.584157 -122.021007 320 3407ft 202kts
08-Jan-20 21:14 37.600546 -122.051922 278 3374ft 198kts
08-Jan-20 21:15 37.607897 -122.089734 315 3224ft 205kts
08-Jan-20 21:16 37.632514 -122.111371 317 3223ft 203kts
08-Jan-20 21:17 37.653419 -122.142335 305 1761ft 183kts
08-Jan-20 21:18 37.672152 -122.170006 311 886ft 160kts
08-Jan-20 21:19 37.687604 -122.193358 307 438ft 135kts
08-Jan-20 21:20 37.701231 -122.213858 307 66ft 143kts
08-Jan-20 21:21 37.710994 -122.228630 311 15ft 33kts
08-Jan-20 21:22 37.714482 -122.231250 24 15ft 16kts
08-Jan-20 21:23 37.713860 -122.229027 132 15ft 20kts
08-Jan-20 21:24 37.712309 -122.224812 48 15ft 34kts
08-Jan-20 21:25 37.714846 -122.219790 27 15ft 18kts
08-Jan-20 21:26 37.717769 -122.217531 295 15ft 19kts
08-Jan-20 21:27 37.716725 -122.218734 139 15ft 5kts

Navigation Log

Ident Type
Flight plan parsing failed, navigation log unavailable